sensor_id;sensor_type;location;lat;lon;timestamp;pressure;altitude;pressure_sealevel;temperature;humidity
44075;BME280;60448;44.956;7.660;2023-02-15T00:00:00;0;;;unknown;unknown
44075;BME280;60448;44.956;7.660;2023-02-15T00:05:00;0;;;unknown;unknown
44075;BME280;60448;44.956;7.660;2023-02-15T00:10:00;0;;;unknown;unknown
44075;BME280;60448;44.956;7.660;2023-02-15T00:15:00;0;;;unknown;unknown
44075;BME280;60448;44.956;7.660;2023-02-15T00:20:00;0;;;unknown;unknown
44075;BME280;60448;44.956;7.660;2023-02-15T00:25:00;0;;;unknown;unknown
44075;BME280;60448;44.956;7.660;2023-02-15T00:30:00;0;;;unknown;unknown
44075;BME280;60448;44.956;7.660;2023-02-15T00:35:00;0;;;unknown;unknown
44075;BME280;60448;44.956;7.660;2023-02-15T00:40:00;0;;;unknown;unknown
44075;BME280;60448;44.956;7.660;2023-02-15T00:45:00;0;;;unknown;unknown
44075;BME280;60448;44.956;7.660;2023-02-15T00:50:00;0;;;unknown;unknown
44075;BME280;60448;44.956;7.660;2023-02-15T00:55:00;0;;;unknown;unknown
44075;BME280;60448;44.956;7.660;2023-02-15T01:00:00;0;;;unknown;unknown
44075;BME280;60448;44.956;7.660;2023-02-15T01:05:00;0;;;unknown;unknown
44075;BME280;60448;44.956;7.660;2023-02-15T01:10:00;0;;;unknown;unknown
44075;BME280;60448;44.956;7.660;2023-02-15T01:15:00;0;;;unknown;unknown
44075;BME280;60448;44.956;7.660;2023-02-15T01:20:00;0;;;unknown;unknown
44075;BME280;60448;44.956;7.660;2023-02-15T01:25:00;0;;;unknown;unknown
44075;BME280;60448;44.956;7.660;2023-02-15T01:30:00;0;;;unknown;unknown
44075;BME280;60448;44.956;7.660;2023-02-15T01:35:00;0;;;unknown;unknown
44075;BME280;60448;44.956;7.660;2023-02-15T01:40:01;0;;;unknown;unknown
44075;BME280;60448;44.956;7.660;2023-02-15T01:45:02;0;;;unknown;unknown
44075;BME280;60448;44.956;7.660;2023-02-15T01:50:04;0;;;unknown;unknown
44075;BME280;60448;44.956;7.660;2023-02-15T01:55:00;0;;;unknown;unknown
44075;BME280;60448;44.956;7.660;2023-02-15T02:00:01;0;;;unknown;unknown
44075;BME280;60448;44.956;7.660;2023-02-15T02:05:01;0;;;unknown;unknown
44075;BME280;60448;44.956;7.660;2023-02-15T02:10:01;0;;;unknown;unknown
44075;BME280;60448;44.956;7.660;2023-02-15T02:15:00;0;;;unknown;unknown
44075;BME280;60448;44.956;7.660;2023-02-15T02:35:11;0;;;unknown;unknown
44075;BME280;60448;44.956;7.660;2023-02-15T02:40:07;0;;;unknown;unknown
44075;BME280;60448;44.956;7.660;2023-02-15T02:50:02;0;;;unknown;unknown
44075;BME280;60448;44.956;7.660;2023-02-15T02:55:01;0;;;unknown;unknown
44075;BME280;60448;44.956;7.660;2023-02-15T03:00:02;0;;;unknown;unknown
44075;BME280;60448;44.956;7.660;2023-02-15T03:05:02;0;;;unknown;unknown
44075;BME280;60448;44.956;7.660;2023-02-15T03:10:00;0;;;unknown;unknown
44075;BME280;60448;44.956;7.660;2023-02-15T03:15:01;0;;;unknown;unknown
44075;BME280;60448;44.956;7.660;2023-02-15T03:20:04;0;;;unknown;unknown
44075;BME280;60448;44.956;7.660;2023-02-15T03:25:32;0;;;unknown;unknown
44075;BME280;60448;44.956;7.660;2023-02-15T03:30:00;0;;;unknown;unknown
44075;BME280;60448;44.956;7.660;2023-02-15T03:35:00;0;;;unknown;unknown
44075;BME280;60448;44.956;7.660;2023-02-15T03:40:02;0;;;unknown;unknown
44075;BME280;60448;44.956;7.660;2023-02-15T03:45:05;0;;;unknown;unknown
44075;BME280;60448;44.956;7.660;2023-02-15T03:50:02;0;;;unknown;unknown
44075;BME280;60448;44.956;7.660;2023-02-15T03:55:00;0;;;unknown;unknown
44075;BME280;60448;44.956;7.660;2023-02-15T04:00:02;0;;;unknown;unknown
44075;BME280;60448;44.956;7.660;2023-02-15T04:05:00;0;;;unknown;unknown
44075;BME280;60448;44.956;7.660;2023-02-15T04:10:00;0;;;unknown;unknown
44075;BME280;60448;44.956;7.660;2023-02-15T04:15:00;0;;;unknown;unknown
44075;BME280;60448;44.956;7.660;2023-02-15T04:20:00;0;;;unknown;unknown
44075;BME280;60448;44.956;7.660;2023-02-15T04:25:00;0;;;unknown;unknown
44075;BME280;60448;44.956;7.660;2023-02-15T04:30:00;0;;;unknown;unknown
44075;BME280;60448;44.956;7.660;2023-02-15T04:35:00;0;;;unknown;unknown
44075;BME280;60448;44.956;7.660;2023-02-15T04:40:00;0;;;unknown;unknown
44075;BME280;60448;44.956;7.660;2023-02-15T04:45:00;0;;;unknown;unknown
44075;BME280;60448;44.956;7.660;2023-02-15T04:50:00;0;;;unknown;unknown
44075;BME280;60448;44.956;7.660;2023-02-15T04:55:00;0;;;unknown;unknown
44075;BME280;60448;44.956;7.660;2023-02-15T05:00:00;0;;;unknown;unknown
44075;BME280;60448;44.956;7.660;2023-02-15T05:05:00;0;;;unknown;unknown
44075;BME280;60448;44.956;7.660;2023-02-15T05:10:00;0;;;unknown;unknown
44075;BME280;60448;44.956;7.660;2023-02-15T05:15:00;0;;;unknown;unknown
44075;BME280;60448;44.956;7.660;2023-02-15T05:20:00;0;;;unknown;unknown
44075;BME280;60448;44.956;7.660;2023-02-15T05:25:00;0;;;unknown;unknown
44075;BME280;60448;44.956;7.660;2023-02-15T05:30:00;0;;;unknown;unknown
44075;BME280;60448;44.956;7.660;2023-02-15T05:35:00;0;;;unknown;unknown
44075;BME280;60448;44.956;7.660;2023-02-15T05:40:00;0;;;unknown;unknown
44075;BME280;60448;44.956;7.660;2023-02-15T05:45:00;0;;;unknown;unknown
44075;BME280;60448;44.956;7.660;2023-02-15T05:50:00;0;;;unknown;unknown
44075;BME280;60448;44.956;7.660;2023-02-15T05:55:00;0;;;unknown;unknown
44075;BME280;60448;44.956;7.660;2023-02-15T06:00:00;0;;;unknown;unknown
44075;BME280;60448;44.956;7.660;2023-02-15T06:05:00;0;;;unknown;unknown
44075;BME280;60448;44.956;7.660;2023-02-15T06:10:00;0;;;unknown;unknown
44075;BME280;60448;44.956;7.660;2023-02-15T06:15:00;0;;;unknown;unknown
44075;BME280;60448;44.956;7.660;2023-02-15T06:20:00;0;;;unknown;unknown
44075;BME280;60448;44.956;7.660;2023-02-15T06:25:00;0;;;unknown;unknown
44075;BME280;60448;44.956;7.660;2023-02-15T06:30:00;0;;;unknown;unknown
44075;BME280;60448;44.956;7.660;2023-02-15T06:35:00;0;;;unknown;unknown
44075;BME280;60448;44.956;7.660;2023-02-15T06:40:00;0;;;unknown;unknown
44075;BME280;60448;44.956;7.660;2023-02-15T06:45:00;100140;;;14.7;49.3
44075;BME280;60448;44.956;7.660;2023-02-15T06:50:00;100140;;;14.7;49.2
44075;BME280;60448;44.956;7.660;2023-02-15T06:55:00;100140;;;14.7;49.2
44075;BME280;60448;44.956;7.660;2023-02-15T07:00:00;100130;;;15.1;49.1
44075;BME280;60448;44.956;7.660;2023-02-15T07:05:00;100130;;;15.0;49.0
44075;BME280;60448;44.956;7.660;2023-02-15T07:10:00;100130;;;15.0;49.0
44075;BME280;60448;44.956;7.660;2023-02-15T07:15:00;100130;;;15.0;49.0
44075;BME280;60448;44.956;7.660;2023-02-15T07:20:00;100140;;;15.2;49.0
44075;BME280;60448;44.956;7.660;2023-02-15T07:25:00;100140;;;15.2;49.0
44075;BME280;60448;44.956;7.660;2023-02-15T07:30:00;100140;;;15.2;49.0
44075;BME280;60448;44.956;7.660;2023-02-15T07:35:00;100150;;;15.1;48.8
44075;BME280;60448;44.956;7.660;2023-02-15T07:40:00;100150;;;15.1;48.8
44075;BME280;60448;44.956;7.660;2023-02-15T07:45:00;100150;;;15.1;48.8
44075;BME280;60448;44.956;7.660;2023-02-15T07:50:00;100140;;;15.0;48.7
44075;BME280;60448;44.956;7.660;2023-02-15T07:55:00;100140;;;15.0;48.7
44075;BME280;60448;44.956;7.660;2023-02-15T08:00:00;100140;;;15.0;48.6
44075;BME280;60448;44.956;7.660;2023-02-15T08:05:00;100130;;;15.0;48.5
44075;BME280;60448;44.956;7.660;2023-02-15T08:10:00;100130;;;15.0;48.5
44075;BME280;60448;44.956;7.660;2023-02-15T08:15:00;100130;;;15.0;48.5
44075;BME280;60448;44.956;7.660;2023-02-15T08:20:00;100130;;;14.9;48.4
44075;BME280;60448;44.956;7.660;2023-02-15T08:25:00;100120;;;14.9;48.5
44075;BME280;60448;44.956;7.660;2023-02-15T08:30:00;100130;;;14.9;48.5
44075;BME280;60448;44.956;7.660;2023-02-15T08:35:00;100120;;;14.9;48.5
44075;BME280;60448;44.956;7.660;2023-02-15T08:40:00;100130;;;14.9;48.4
44075;BME280;60448;44.956;7.660;2023-02-15T08:45:00;100120;;;14.9;48.4
44075;BME280;60448;44.956;7.660;2023-02-15T08:50:00;100110;;;14.9;48.4
44075;BME280;60448;44.956;7.660;2023-02-15T08:55:00;100110;;;14.9;48.5
44075;BME280;60448;44.956;7.660;2023-02-15T09:00:00;100110;;;14.9;48.5
44075;BME280;60448;44.956;7.660;2023-02-15T09:05:00;100110;;;14.9;48.9
44075;BME280;60448;44.956;7.660;2023-02-15T09:10:00;100110;;;15.1;48.5
44075;BME280;60448;44.956;7.660;2023-02-15T09:15:00;100110;;;15.2;48.2
44075;BME280;60448;44.956;7.660;2023-02-15T09:20:00;100110;;;15.3;48.0
44075;BME280;60448;44.956;7.660;2023-02-15T09:25:00;100110;;;15.4;47.9
44075;BME280;60448;44.956;7.660;2023-02-15T09:30:00;100100;;;15.4;47.6
44075;BME280;60448;44.956;7.660;2023-02-15T09:35:00;100100;;;15.4;47.6
44075;BME280;60448;44.956;7.660;2023-02-15T09:40:00;100100;;;15.4;47.6
44075;BME280;60448;44.956;7.660;2023-02-15T10:00:04;100090;;;15.1;48.3
44075;BME280;60448;44.956;7.660;2023-02-15T10:35:04;100080;;;14.8;48.7
44075;BME280;60448;44.956;7.660;2023-02-15T10:40:10;100080;;;14.8;48.7
44075;BME280;60448;44.956;7.660;2023-02-15T10:50:06;100080;;;14.8;48.7
44075;BME280;60448;44.956;7.660;2023-02-15T11:15:03;100050;;;14.8;48.8
44075;BME280;60448;44.956;7.660;2023-02-15T11:20:04;100040;;;14.8;48.8
44075;BME280;60448;44.956;7.660;2023-02-15T11:25:00;100040;;;14.8;48.8
44075;BME280;60448;44.956;7.660;2023-02-15T11:30:05;100040;;;14.8;48.8
44075;BME280;60448;44.956;7.660;2023-02-15T11:35:06;100010;;;14.7;48.9
44075;BME280;60448;44.956;7.660;2023-02-15T11:40:01;100010;;;14.7;49.0
44075;BME280;60448;44.956;7.660;2023-02-15T11:50:00;100010;;;14.7;49.0
44075;BME280;60448;44.956;7.660;2023-02-15T11:55:00;99980;;;14.7;49.1
44075;BME280;60448;44.956;7.660;2023-02-15T12:00:02;99970;;;14.7;49.1
44075;BME280;60448;44.956;7.660;2023-02-15T12:05:01;99970;;;14.7;49.1
44075;BME280;60448;44.956;7.660;2023-02-15T12:15:02;99970;;;14.7;49.1
44075;BME280;60448;44.956;7.660;2023-02-15T12:20:01;99950;;;14.7;49.1
44075;BME280;60448;44.956;7.660;2023-02-15T12:25:02;99950;;;14.7;49.1
44075;BME280;60448;44.956;7.660;2023-02-15T12:35:07;99930;;;14.7;49.2
44075;BME280;60448;44.956;7.660;2023-02-15T12:40:01;99930;;;14.7;49.2
44075;BME280;60448;44.956;7.660;2023-02-15T12:45:02;99930;;;14.7;49.2
44075;BME280;60448;44.956;7.660;2023-02-15T12:50:06;99900;;;14.8;49.2
44075;BME280;60448;44.956;7.660;2023-02-15T13:05:04;99870;;;14.9;49.2
44075;BME280;60448;44.956;7.660;2023-02-15T13:10:00;99870;;;14.8;49.4
44075;BME280;60448;44.956;7.660;2023-02-15T13:15:00;99870;;;14.8;49.4
44075;BME280;60448;44.956;7.660;2023-02-15T13:20:02;99870;;;14.8;49.4
44075;BME280;60448;44.956;7.660;2023-02-15T13:25:03;99850;;;14.8;49.4
44075;BME280;60448;44.956;7.660;2023-02-15T13:30:02;99840;;;14.8;49.4
44075;BME280;60448;44.956;7.660;2023-02-15T13:35:00;99840;;;14.8;49.4
44075;BME280;60448;44.956;7.660;2023-02-15T13:40:03;99840;;;14.8;49.4
44075;BME280;60448;44.956;7.660;2023-02-15T14:20:02;99800;;;15.0;49.4
44075;BME280;60448;44.956;7.660;2023-02-15T14:25:05;99800;;;15.0;49.4
44075;BME280;60448;44.956;7.660;2023-02-15T14:30:02;99800;;;15.0;49.4
44075;BME280;60448;44.956;7.660;2023-02-15T14:35:01;99790;;;15.0;49.3
44075;BME280;60448;44.956;7.660;2023-02-15T14:40:02;99790;;;15.0;49.3
44075;BME280;60448;44.956;7.660;2023-02-15T14:45:02;99790;;;15.0;49.3
44075;BME280;60448;44.956;7.660;2023-02-15T14:50:23;99790;;;15.2;49.1
44075;BME280;60448;44.956;7.660;2023-02-15T14:55:00;99790;;;15.1;49.2
44075;BME280;60448;44.956;7.660;2023-02-15T15:00:00;99790;;;15.1;49.2
44075;BME280;60448;44.956;7.660;2023-02-15T15:05:09;99790;;;15.1;49.2
44075;BME280;60448;44.956;7.660;2023-02-15T15:10:03;99780;;;15.2;49.1
44075;BME280;60448;44.956;7.660;2023-02-15T15:15:00;99780;;;15.2;49.1
44075;BME280;60448;44.956;7.660;2023-02-15T15:20:01;99780;;;15.2;49.1
44075;BME280;60448;44.956;7.660;2023-02-15T15:25:03;99770;;;15.2;49.3
44075;BME280;60448;44.956;7.660;2023-02-15T15:30:00;99770;;;15.2;49.3
44075;BME280;60448;44.956;7.660;2023-02-15T15:35:13;99770;;;15.2;49.3
44075;BME280;60448;44.956;7.660;2023-02-15T15:50:00;99770;;;15.2;49.2
44075;BME280;60448;44.956;7.660;2023-02-15T15:55:04;99760;;;15.3;49.3
44075;BME280;60448;44.956;7.660;2023-02-15T16:00:00;99760;;;15.3;49.3
44075;BME280;60448;44.956;7.660;2023-02-15T16:05:08;99760;;;15.3;49.3
44075;BME280;60448;44.956;7.660;2023-02-15T16:10:02;99760;;;15.3;49.3
44075;BME280;60448;44.956;7.660;2023-02-15T16:15:01;99760;;;15.3;49.3
44075;BME280;60448;44.956;7.660;2023-02-15T16:20:04;99760;;;15.3;49.3
44075;BME280;60448;44.956;7.660;2023-02-15T16:35:01;99760;;;15.4;49.3
44075;BME280;60448;44.956;7.660;2023-02-15T16:40:00;99770;;;15.5;49.4
44075;BME280;60448;44.956;7.660;2023-02-15T16:50:01;99760;;;15.4;49.4
44075;BME280;60448;44.956;7.660;2023-02-15T16:55:02;99760;;;15.4;49.4
44075;BME280;60448;44.956;7.660;2023-02-15T17:00:03;99780;;;15.5;49.5
44075;BME280;60448;44.956;7.660;2023-02-15T17:10:00;99780;;;15.5;49.5
44075;BME280;60448;44.956;7.660;2023-02-15T17:15:00;99790;;;15.5;49.5
44075;BME280;60448;44.956;7.660;2023-02-15T17:20:00;99790;;;15.5;49.5
44075;BME280;60448;44.956;7.660;2023-02-15T17:25:01;99790;;;15.5;49.5
44075;BME280;60448;44.956;7.660;2023-02-15T17:30:01;99800;;;15.6;49.7
44075;BME280;60448;44.956;7.660;2023-02-15T17:40:01;99800;;;15.6;49.7
44075;BME280;60448;44.956;7.660;2023-02-15T17:45:00;99810;;;15.6;49.6
44075;BME280;60448;44.956;7.660;2023-02-15T17:50:01;99810;;;15.6;49.6
44075;BME280;60448;44.956;7.660;2023-02-15T17:55:01;99810;;;15.6;49.6
44075;BME280;60448;44.956;7.660;2023-02-15T18:00:00;99810;;;15.7;49.7
44075;BME280;60448;44.956;7.660;2023-02-15T18:05:00;99820;;;15.7;49.7
44075;BME280;60448;44.956;7.660;2023-02-15T18:10:01;99820;;;15.7;49.7
44075;BME280;60448;44.956;7.660;2023-02-15T18:15:01;99830;;;15.7;49.7
44075;BME280;60448;44.956;7.660;2023-02-15T18:20:01;99830;;;15.7;49.7
44075;BME280;60448;44.956;7.660;2023-02-15T18:25:00;99830;;;15.7;49.7
44075;BME280;60448;44.956;7.660;2023-02-15T18:30:00;99830;;;15.8;49.9
44075;BME280;60448;44.956;7.660;2023-02-15T18:35:00;99830;;;15.8;49.9
44075;BME280;60448;44.956;7.660;2023-02-15T18:40:01;99830;;;15.8;49.9
44075;BME280;60448;44.956;7.660;2023-02-15T18:45:03;99830;;;15.8;49.9
44075;BME280;60448;44.956;7.660;2023-02-15T18:50:00;99840;;;15.8;50.1
44075;BME280;60448;44.956;7.660;2023-02-15T18:55:01;99840;;;15.8;50.1
44075;BME280;60448;44.956;7.660;2023-02-15T19:00:00;99840;;;15.8;50.1
44075;BME280;60448;44.956;7.660;2023-02-15T19:05:00;99850;;;15.8;50.1
44075;BME280;60448;44.956;7.660;2023-02-15T19:10:01;99850;;;15.8;50.1
44075;BME280;60448;44.956;7.660;2023-02-15T19:15:00;99850;;;15.8;50.1
44075;BME280;60448;44.956;7.660;2023-02-15T19:20:00;99850;;;15.9;50.2
44075;BME280;60448;44.956;7.660;2023-02-15T19:25:01;99850;;;15.9;50.2
44075;BME280;60448;44.956;7.660;2023-02-15T19:30:03;99850;;;15.9;50.2
44075;BME280;60448;44.956;7.660;2023-02-15T19:35:00;99860;;;15.9;50.4
44075;BME280;60448;44.956;7.660;2023-02-15T19:40:00;99860;;;15.9;50.4
44075;BME280;60448;44.956;7.660;2023-02-15T19:45:00;99860;;;15.9;50.4
44075;BME280;60448;44.956;7.660;2023-02-15T19:50:00;99870;;;15.9;50.4
44075;BME280;60448;44.956;7.660;2023-02-15T19:55:00;99860;;;15.9;50.5
44075;BME280;60448;44.956;7.660;2023-02-15T20:00:00;99860;;;15.9;50.5
44075;BME280;60448;44.956;7.660;2023-02-15T20:05:00;99880;;;15.9;50.4
44075;BME280;60448;44.956;7.660;2023-02-15T20:10:00;99890;;;15.9;50.5
44075;BME280;60448;44.956;7.660;2023-02-15T20:15:00;99890;;;15.9;50.5
44075;BME280;60448;44.956;7.660;2023-02-15T20:20:00;99890;;;15.9;50.5
44075;BME280;60448;44.956;7.660;2023-02-15T20:25:00;99900;;;15.9;50.5
44075;BME280;60448;44.956;7.660;2023-02-15T20:30:00;99900;;;15.9;50.5
44075;BME280;60448;44.956;7.660;2023-02-15T20:35:00;99900;;;15.9;50.5
44075;BME280;60448;44.956;7.660;2023-02-15T20:40:00;99890;;;15.9;50.6
44075;BME280;60448;44.956;7.660;2023-02-15T20:45:00;99890;;;15.9;50.6
44075;BME280;60448;44.956;7.660;2023-02-15T20:50:00;99890;;;15.9;50.6
44075;BME280;60448;44.956;7.660;2023-02-15T20:55:00;99900;;;16.0;50.8
44075;BME280;60448;44.956;7.660;2023-02-15T21:00:00;99900;;;16.0;50.8
44075;BME280;60448;44.956;7.660;2023-02-15T21:05:00;99900;;;16.0;50.8
44075;BME280;60448;44.956;7.660;2023-02-15T21:10:00;99900;;;16.0;50.9
44075;BME280;60448;44.956;7.660;2023-02-15T21:15:00;99900;;;16.0;50.9
44075;BME280;60448;44.956;7.660;2023-02-15T21:20:00;99900;;;16.0;50.9
44075;BME280;60448;44.956;7.660;2023-02-15T21:25:00;99910;;;16.0;50.9
44075;BME280;60448;44.956;7.660;2023-02-15T21:30:00;99910;;;16.0;50.9
44075;BME280;60448;44.956;7.660;2023-02-15T21:35:00;99910;;;16.0;50.9
44075;BME280;60448;44.956;7.660;2023-02-15T21:40:00;99910;;;16.0;50.9
44075;BME280;60448;44.956;7.660;2023-02-15T21:45:00;99910;;;16.0;50.9
44075;BME280;60448;44.956;7.660;2023-02-15T21:50:00;99910;;;16.0;50.9
44075;BME280;60448;44.956;7.660;2023-02-15T21:55:00;99920;;;16.0;50.9
44075;BME280;60448;44.956;7.660;2023-02-15T22:00:01;99920;;;16.0;50.9
44075;BME280;60448;44.956;7.660;2023-02-15T22:05:00;99920;;;16.0;50.9
44075;BME280;60448;44.956;7.660;2023-02-15T22:10:00;99920;;;16.0;50.9
44075;BME280;60448;44.956;7.660;2023-02-15T22:15:00;99930;;;16.0;50.9
44075;BME280;60448;44.956;7.660;2023-02-15T22:20:00;99930;;;16.0;50.9
44075;BME280;60448;44.956;7.660;2023-02-15T22:25:00;99930;;;16.0;50.9
44075;BME280;60448;44.956;7.660;2023-02-15T22:30:00;99930;;;16.0;50.9
44075;BME280;60448;44.956;7.660;2023-02-15T22:35:00;99930;;;16.0;50.9
44075;BME280;60448;44.956;7.660;2023-02-15T22:40:00;99930;;;16.0;50.9
44075;BME280;60448;44.956;7.660;2023-02-15T22:45:00;99940;;;16.0;50.9
44075;BME280;60448;44.956;7.660;2023-02-15T22:50:00;99940;;;16.0;50.9
44075;BME280;60448;44.956;7.660;2023-02-15T22:55:00;99940;;;16.0;50.9
44075;BME280;60448;44.956;7.660;2023-02-15T23:00:00;99930;;;16.0;51.0
44075;BME280;60448;44.956;7.660;2023-02-15T23:05:00;99930;;;16.0;51.0
44075;BME280;60448;44.956;7.660;2023-02-15T23:10:00;99930;;;16.0;51.0
44075;BME280;60448;44.956;7.660;2023-02-15T23:15:00;99950;;;16.0;50.9
44075;BME280;60448;44.956;7.660;2023-02-15T23:20:00;99950;;;16.0;50.9
44075;BME280;60448;44.956;7.660;2023-02-15T23:25:00;99950;;;16.0;50.9
44075;BME280;60448;44.956;7.660;2023-02-15T23:30:02;99960;;;16.0;50.8
44075;BME280;60448;44.956;7.660;2023-02-15T23:35:00;99960;;;16.0;50.8
44075;BME280;60448;44.956;7.660;2023-02-15T23:40:00;99960;;;16.0;50.8
44075;BME280;60448;44.956;7.660;2023-02-15T23:45:00;99960;;;16.0;50.7
44075;BME280;60448;44.956;7.660;2023-02-15T23:50:00;99960;;;15.9;50.8
44075;BME280;60448;44.956;7.660;2023-02-15T23:55:00;99960;;;15.9;50.8
